Карточка аэропорта USRR

Внимание!
Информация на этой странице в стадии наполнения.
Если вы не увидели какой-то информации, или заметили неточность - пожалуйста сообщите нам!
Спасибо!
Команда RU-STAFF
Название аэропортаСургут
Название аэропорта (англ.)Surgut
Превышение196 ft. (59.7 m.)
Координаты61°20.502', 73°24.168'
Высота перехода700m
Эшелон переходаFL040
Коды ответчика5570-5577
Зона ОрВДТюмень РПИ (USTV)
Данные METARUSRR 090930Z 20005MPS 6000 -SHSN SCT024CB BKN044 M11/M13 Q1002 R25/450537 TEMPO 2000 SHSN RMK OBST OBSC QFE746
Проноз погоды (TAF)USRR 090755Z 0909/1009 19005G13MPS 3100 -SHSN SCT007 BKN017CB TEMPO 0909/0914 0800 +SHSN VV005 BECMG 0911/0912 13003G08MPS BECMG 0914/0916 6000 NSW FEW003 TEMPO 0916/1006 0800 FZFG VV002
NOTAMshow/hide NOTAM
AWOS   TABLE

Информация о ВПП

ВПП Длина ВПП (м.) Покрытие Курс ВПП Частота ILS
252780Асфальтобетон253109.1
072780Асфальтобетон73110.5

Диспетчерские позиции

Позывной Наименование органа УВД Частота
USRR_TWRСургут-Вышка120.800
USRR_APPСургут-Подход129.300



Спутниковое изображение